createdAt,value
2022-10-25T00:00:30.754Z,16.45
2022-10-25T00:02:58.026Z,12.93
2022-10-25T00:05:25.336Z,10.88
2022-10-25T00:07:52.597Z,11.63
2022-10-25T00:10:22.261Z,11.20
2022-10-25T00:12:52.795Z,12.57
2022-10-25T00:15:20.230Z,10.73
2022-10-25T00:17:47.934Z,13.15
2022-10-25T00:20:15.312Z,11.38
2022-10-25T00:22:42.702Z,13.40
2022-10-25T00:25:10.599Z,11.32
2022-10-25T00:27:38.120Z,11.00
2022-10-25T00:30:06.436Z,12.25
2022-10-25T00:32:34.532Z,14.95
2022-10-25T00:35:01.787Z,15.75
2022-10-25T00:37:29.191Z,12.30
2022-10-25T00:39:56.477Z,10.32
2022-10-25T00:42:25.503Z,12.93
2022-10-25T00:44:52.820Z,13.32
2022-10-25T00:47:20.035Z,13.50
2022-10-25T00:49:54.069Z,14.75
2022-10-25T00:52:21.484Z,13.20
2022-10-25T00:54:51.234Z,12.60
2022-10-25T00:57:20.903Z,13.27
2022-10-25T00:59:48.486Z,16.20
2022-10-25T01:02:16.080Z,18.15
2022-10-25T01:04:43.799Z,16.17
2022-10-25T01:07:11.087Z,19.13
2022-10-25T01:09:39.154Z,20.65
2022-10-25T01:12:06.550Z,19.88
2022-10-25T01:14:36.444Z,21.50
2022-10-25T01:17:15.712Z,27.40
2022-10-25T01:19:55.189Z,20.42
2022-10-25T01:22:34.775Z,21.40
2022-10-25T01:25:11.072Z,22.83
2022-10-25T01:27:38.323Z,26.58
2022-10-25T01:30:11.505Z,24.55
2022-10-25T01:32:38.785Z,28.48
2022-10-25T01:35:06.053Z,24.95
2022-10-25T01:37:33.287Z,26.83
2022-10-25T01:40:06.878Z,28.80
2022-10-25T01:42:39.578Z,33.45
2022-10-25T01:45:11.842Z,27.15
2022-10-25T01:47:44.801Z,34.78
2022-10-25T01:50:15.051Z,27.00
2022-10-25T01:52:42.513Z,37.30
2022-10-25T01:55:11.822Z,31.73
2022-10-25T01:57:58.767Z,33.28
2022-10-25T02:00:28.831Z,34.65
2022-10-25T02:02:56.156Z,34.30
2022-10-25T02:05:26.730Z,38.65
2022-10-25T02:07:53.945Z,44.75
2022-10-25T02:10:25.919Z,39.13
2022-10-25T02:13:05.344Z,35.83
2022-10-25T02:15:38.852Z,40.75
2022-10-25T02:18:08.518Z,38.00
2022-10-25T02:20:36.769Z,36.30
2022-10-25T02:23:06.052Z,40.28
2022-10-25T02:25:34.322Z,40.75
2022-10-25T02:28:02.671Z,34.60
2022-10-25T02:30:30.620Z,34.42
2022-10-25T02:32:57.923Z,38.72
2022-10-25T02:35:25.219Z,39.28
2022-10-25T02:37:52.437Z,37.33
2022-10-25T02:40:20.192Z,36.00
2022-10-25T02:42:47.455Z,43.05
2022-10-25T02:45:14.733Z,44.22
2022-10-25T02:47:41.965Z,41.13
2022-10-25T02:50:09.404Z,44.15
2022-10-25T02:52:36.737Z,43.13
2022-10-25T02:55:04.159Z,47.15
2022-10-25T02:57:35.237Z,40.30
2022-10-25T03:00:02.634Z,51.13
2022-10-25T03:02:29.974Z,43.35
2022-10-25T03:04:57.247Z,49.53
2022-10-25T03:07:24.500Z,41.17
2022-10-25T03:09:51.815Z,42.10
2022-10-25T03:12:19.083Z,46.30
2022-10-25T03:14:46.331Z,49.40
2022-10-25T03:17:13.562Z,52.42
2022-10-25T03:19:40.779Z,52.08
2022-10-25T03:22:08.011Z,51.15
2022-10-25T03:24:35.306Z,50.55
2022-10-25T03:27:02.556Z,52.72
2022-10-25T03:29:29.836Z,49.53
2022-10-25T03:31:57.128Z,50.40
2022-10-25T03:34:24.404Z,45.92
2022-10-25T03:36:52.441Z,53.78
2022-10-25T03:39:19.751Z,55.03
2022-10-25T03:41:47.014Z,50.33
2022-10-25T03:44:14.250Z,59.35
2022-10-25T03:46:41.526Z,50.55
2022-10-25T03:49:08.934Z,47.22
2022-10-25T03:51:36.219Z,48.72
2022-10-25T03:54:03.504Z,52.15
2022-10-25T03:56:30.776Z,54.22
2022-10-25T03:58:58.049Z,55.88
2022-10-25T04:01:25.388Z,54.53
2022-10-25T04:03:52.674Z,58.45
2022-10-25T04:06:19.957Z,53.75
2022-10-25T04:08:47.215Z,60.72
2022-10-25T04:11:14.472Z,57.33
2022-10-25T04:13:41.757Z,56.63
2022-10-25T04:16:09.574Z,52.08
2022-10-25T04:18:36.832Z,51.13
2022-10-25T04:21:04.162Z,55.53
2022-10-25T04:23:31.583Z,49.85
2022-10-25T04:25:58.927Z,51.88
2022-10-25T04:28:26.750Z,48.08
2022-10-25T04:30:54.008Z,53.38
2022-10-25T04:33:21.260Z,53.05
2022-10-25T04:35:56.350Z,49.90
2022-10-25T04:38:24.254Z,52.38
2022-10-25T04:40:58.252Z,53.58
2022-10-25T04:43:26.211Z,53.15
2022-10-25T04:45:54.005Z,50.75
2022-10-25T04:48:21.806Z,53.38
2022-10-25T04:50:49.195Z,50.35
2022-10-25T04:53:16.451Z,47.60
2022-10-25T04:55:43.801Z,48.13
2022-10-25T04:58:11.082Z,43.42
2022-10-25T05:00:38.327Z,45.75
2022-10-25T05:03:09.487Z,40.50
2022-10-25T05:05:39.679Z,39.05
2022-10-25T05:08:06.943Z,42.17
2022-10-25T05:10:34.171Z,36.90
2022-10-25T05:13:02.690Z,36.95
2022-10-25T05:15:30.385Z,34.90
2022-10-25T05:17:58.253Z,36.70
2022-10-25T05:20:25.669Z,34.05
2022-10-25T05:22:52.968Z,30.95
2022-10-25T05:25:20.233Z,32.63
2022-10-25T05:27:47.508Z,33.70
2022-10-25T05:30:14.850Z,36.00
2022-10-25T05:32:43.848Z,35.45
2022-10-25T05:35:11.239Z,33.08
2022-10-25T05:37:38.473Z,30.80
2022-10-25T05:40:06.060Z,31.48
2022-10-25T05:42:33.298Z,35.28
2022-10-25T05:45:00.551Z,28.95
2022-10-25T05:47:27.865Z,35.25
2022-10-25T05:49:55.100Z,35.88
2022-10-25T05:52:22.428Z,33.78
2022-10-25T05:54:49.686Z,36.00
2022-10-25T05:57:16.926Z,33.88
2022-10-25T05:59:44.278Z,38.20
2022-10-25T06:02:12.089Z,40.63
2022-10-25T06:04:39.472Z,35.13
2022-10-25T06:07:06.786Z,33.45
2022-10-25T06:09:34.051Z,28.70
2022-10-25T06:12:02.969Z,29.77
2022-10-25T06:14:32.137Z,32.88
2022-10-25T06:16:59.375Z,32.17
2022-10-25T06:19:26.629Z,35.83
2022-10-25T06:21:55.012Z,32.13
2022-10-25T06:24:22.227Z,30.30
2022-10-25T06:26:49.577Z,30.52
2022-10-25T06:29:16.893Z,36.30
2022-10-25T06:31:44.767Z,30.98
2022-10-25T06:34:11.973Z,33.50
2022-10-25T06:36:39.273Z,34.80
2022-10-25T06:39:07.083Z,35.15
2022-10-25T06:41:36.919Z,32.70
2022-10-25T06:44:06.415Z,32.28
2022-10-25T06:46:40.596Z,35.80
2022-10-25T06:49:19.831Z,37.05
2022-10-25T06:51:47.102Z,32.95
2022-10-25T06:54:14.322Z,32.55
2022-10-25T06:56:41.590Z,34.97
2022-10-25T06:59:08.872Z,41.35
2022-10-25T07:01:36.301Z,31.92
2022-10-25T07:04:04.205Z,34.72
2022-10-25T07:06:36.134Z,35.75
2022-10-25T07:09:05.179Z,32.67
2022-10-25T07:11:32.979Z,31.52
2022-10-25T07:14:00.744Z,32.08
2022-10-25T07:16:28.759Z,30.88
2022-10-25T07:18:59.868Z,29.17
2022-10-25T07:21:27.350Z,31.60
2022-10-25T07:23:54.979Z,28.40
2022-10-25T07:26:23.518Z,29.30
2022-10-25T07:28:52.193Z,25.23
2022-10-25T07:31:23.819Z,28.33
2022-10-25T07:33:51.919Z,29.48
2022-10-25T07:36:19.278Z,24.25
2022-10-25T07:38:46.829Z,31.20
2022-10-25T07:41:14.264Z,33.55
2022-10-25T07:43:41.532Z,30.73
2022-10-25T07:46:08.859Z,28.48
2022-10-25T07:48:36.147Z,32.30
2022-10-25T07:51:06.871Z,28.00
2022-10-25T07:53:34.218Z,29.02
2022-10-25T07:56:01.554Z,31.45
2022-10-25T07:58:28.792Z,33.67
2022-10-25T08:01:07.183Z,31.55
2022-10-25T08:03:34.715Z,33.40
2022-10-25T08:06:02.006Z,34.20
2022-10-25T08:08:30.957Z,27.65
2022-10-25T08:10:59.659Z,35.33
2022-10-25T08:13:26.985Z,33.20
2022-10-25T08:15:55.113Z,36.78
2022-10-25T08:18:22.968Z,41.67
2022-10-25T08:27:16.368Z,45.33
2022-10-25T08:29:43.714Z,50.38
2022-10-25T08:32:10.973Z,43.58
2022-10-25T08:34:38.229Z,49.53
2022-10-25T08:37:05.882Z,52.35
2022-10-25T08:39:33.218Z,52.55
2022-10-25T08:42:01.284Z,52.03
2022-10-25T08:44:40.912Z,52.03
2022-10-25T08:47:08.203Z,56.83
2022-10-25T08:49:35.526Z,51.42
2022-10-25T08:52:04.025Z,52.78
2022-10-25T08:54:36.902Z,53.45
2022-10-25T08:57:15.396Z,53.38
2022-10-25T08:59:49.556Z,66.10
2022-10-25T09:02:23.053Z,59.85
2022-10-25T09:04:50.584Z,63.00
2022-10-25T09:07:29.916Z,67.47
2022-10-25T09:10:11.537Z,74.32
2022-10-25T09:12:50.205Z,69.20
2022-10-25T09:15:29.755Z,82.63
2022-10-25T09:17:57.030Z,76.65
2022-10-25T09:20:29.250Z,94.43
2022-10-25T09:23:02.897Z,82.60
2022-10-25T09:25:48.930Z,81.30
2022-10-25T09:28:19.966Z,94.65
2022-10-25T09:30:47.281Z,83.53
2022-10-25T09:35:49.930Z,103.80
2022-10-25T09:38:21.416Z,88.47
2022-10-25T09:40:48.651Z,89.57
2022-10-25T09:43:21.514Z,88.85
2022-10-25T09:45:53.552Z,90.45
2022-10-25T09:48:28.199Z,92.47
2022-10-25T09:51:03.355Z,96.90
2022-10-25T09:53:32.127Z,92.65
2022-10-25T09:56:00.072Z,97.20
2022-10-25T09:58:32.622Z,88.93
2022-10-25T10:01:01.614Z,93.45
2022-10-25T10:03:30.390Z,93.97
2022-10-25T10:05:59.635Z,87.03
2022-10-25T10:08:27.123Z,81.03
2022-10-25T10:10:55.086Z,81.70
2022-10-25T10:13:42.781Z,76.95
2022-10-25T10:16:19.343Z,80.00
2022-10-25T10:18:46.722Z,71.72
2022-10-25T10:21:22.167Z,70.28
2022-10-25T10:23:49.700Z,76.47
2022-10-25T10:26:22.373Z,75.43
2022-10-25T10:29:07.858Z,76.20
2022-10-25T10:31:37.574Z,76.88
2022-10-25T10:34:04.909Z,73.47
2022-10-25T10:36:33.730Z,70.65
2022-10-25T10:39:27.443Z,76.10
2022-10-25T10:42:05.074Z,69.60
2022-10-25T10:44:35.044Z,78.90
2022-10-25T10:47:03.610Z,84.82
2022-10-25T10:49:36.466Z,82.30
2022-10-25T10:52:04.070Z,77.82
2022-10-25T10:54:33.716Z,85.40
2022-10-25T10:57:05.377Z,89.38
2022-10-25T10:59:40.875Z,89.10
2022-10-25T11:02:29.574Z,82.93
2022-10-25T11:04:58.064Z,84.25
2022-10-25T11:07:25.405Z,87.28
2022-10-25T11:09:52.674Z,87.05
2022-10-25T11:12:20.144Z,88.68
2022-10-25T11:14:47.363Z,88.72
2022-10-25T11:17:21.150Z,93.93
2022-10-25T11:19:51.150Z,84.35
2022-10-25T11:22:38.673Z,85.47
2022-10-25T11:25:25.600Z,84.15
2022-10-25T11:28:00.295Z,85.47
2022-10-25T11:30:35.493Z,82.47
2022-10-25T11:33:11.870Z,77.78
2022-10-25T11:35:59.344Z,78.90
2022-10-25T11:38:32.549Z,79.05
2022-10-25T11:41:20.161Z,82.15
2022-10-25T11:44:05.790Z,81.45
2022-10-25T11:47:02.482Z,88.35
2022-10-25T11:49:29.827Z,82.32
2022-10-25T11:51:59.957Z,89.07
2022-10-25T11:54:36.380Z,87.78
2022-10-25T11:57:09.605Z,94.38
2022-10-25T11:59:43.818Z,92.30
2022-10-25T12:02:19.090Z,90.70
2022-10-25T12:05:04.207Z,103.63
2022-10-25T12:07:51.300Z,93.47
2022-10-25T12:10:27.669Z,101.25
2022-10-25T12:13:01.162Z,98.53
2022-10-25T12:15:33.223Z,111.25
2022-10-25T12:18:00.613Z,102.88
2022-10-25T12:20:29.625Z,109.95
2022-10-25T12:22:58.426Z,110.78
2022-10-25T12:25:28.918Z,107.72
2022-10-25T12:28:11.299Z,114.00
2022-10-25T12:30:40.596Z,110.80
2022-10-25T12:33:08.214Z,109.40
2022-10-25T12:35:39.596Z,112.65
2022-10-25T12:38:13.772Z,112.10
2022-10-25T12:40:45.239Z,124.13
2022-10-25T12:43:15.263Z,125.20
2022-10-25T12:45:57.515Z,132.35
2022-10-25T12:48:28.603Z,137.32
2022-10-25T12:50:58.882Z,130.07
2022-10-25T12:53:32.329Z,143.83
2022-10-25T12:56:18.389Z,141.60
2022-10-25T12:58:57.260Z,150.75
2022-10-25T13:01:30.750Z,148.00
2022-10-25T13:04:04.261Z,143.02
2022-10-25T13:06:47.457Z,167.02
2022-10-25T13:09:16.205Z,149.50
2022-10-25T13:11:47.841Z,154.60
2022-10-25T13:14:33.787Z,151.90
2022-10-25T13:17:19.200Z,161.90
2022-10-25T13:19:54.480Z,156.23
2022-10-25T13:22:39.383Z,154.13
2022-10-25T13:25:06.963Z,153.25
2022-10-25T13:27:35.240Z,139.90
2022-10-25T13:30:02.680Z,147.95
2022-10-25T13:32:31.162Z,141.55
2022-10-25T13:34:59.221Z,138.45
2022-10-25T13:37:32.405Z,156.40
2022-10-25T13:40:08.073Z,137.35
2022-10-25T13:42:37.304Z,140.80
2022-10-25T13:45:04.513Z,131.18
2022-10-25T13:47:51.785Z,140.45
2022-10-25T13:50:30.529Z,146.00
2022-10-25T13:53:03.309Z,150.38
2022-10-25T13:55:34.363Z,150.60
2022-10-25T13:58:01.895Z,159.52
2022-10-25T14:00:31.233Z,154.98
2022-10-25T14:03:06.724Z,140.95
2022-10-25T14:05:52.997Z,149.35
2022-10-25T14:08:40.493Z,153.02
2022-10-25T14:11:12.179Z,145.40
2022-10-25T14:13:59.668Z,142.88
2022-10-25T14:16:29.907Z,164.63
2022-10-25T14:18:59.323Z,144.73
2022-10-25T14:21:27.002Z,143.93
2022-10-25T14:23:54.400Z,148.48
2022-10-25T14:26:21.964Z,149.60
2022-10-25T14:28:49.340Z,145.75
2022-10-25T14:31:21.321Z,145.05
2022-10-25T14:33:56.572Z,154.18
2022-10-25T14:36:28.923Z,153.30
2022-10-25T14:38:57.655Z,147.50
2022-10-25T14:41:27.901Z,143.70
2022-10-25T14:43:55.201Z,139.18
2022-10-25T14:46:23.680Z,146.13
2022-10-25T14:48:54.135Z,133.52
2022-10-25T14:51:24.456Z,142.07
2022-10-25T14:53:56.366Z,149.90
2022-10-25T14:56:26.421Z,135.57
2022-10-25T14:58:54.073Z,141.98
2022-10-25T15:01:22.499Z,152.25
2022-10-25T15:03:51.582Z,151.20
2022-10-25T15:06:20.766Z,150.48
2022-10-25T15:08:51.920Z,145.00
2022-10-25T15:11:22.240Z,144.60
2022-10-25T15:13:50.335Z,128.85
2022-10-25T15:16:35.637Z,140.38
2022-10-25T15:19:04.289Z,155.30
2022-10-25T15:21:46.824Z,127.95
2022-10-25T15:24:14.087Z,108.85
2022-10-25T15:27:00.760Z,99.70
2022-10-25T15:29:30.892Z,109.05
2022-10-25T15:31:58.403Z,112.10
2022-10-25T15:34:25.661Z,106.38
2022-10-25T15:36:53.099Z,106.38
2022-10-25T15:39:27.828Z,105.93
2022-10-25T15:41:55.292Z,116.20
2022-10-25T15:44:22.604Z,118.13
2022-10-25T15:46:50.170Z,114.15
2022-10-25T15:49:17.587Z,133.40
2022-10-25T15:51:45.451Z,127.50
2022-10-25T15:54:19.256Z,125.80
2022-10-25T15:56:46.748Z,120.45
2022-10-25T16:01:48.508Z,114.22
2022-10-25T16:04:16.986Z,113.25
2022-10-25T16:06:44.828Z,95.53
2022-10-25T16:09:12.391Z,92.00
2022-10-25T16:11:43.698Z,92.60
2022-10-25T16:14:18.844Z,92.25
2022-10-25T16:16:46.171Z,83.57
2022-10-25T16:19:14.999Z,93.47
2022-10-25T16:21:42.298Z,91.13
2022-10-25T16:24:09.775Z,94.88
2022-10-25T16:26:38.373Z,90.20
2022-10-25T16:29:06.503Z,87.25
2022-10-25T16:31:33.753Z,83.20
2022-10-25T16:34:01.132Z,87.05
2022-10-25T16:36:28.365Z,91.65
2022-10-25T16:38:55.726Z,75.00
2022-10-25T16:41:24.326Z,75.53
2022-10-25T16:43:52.045Z,66.88
2022-10-25T16:46:21.776Z,64.18
2022-10-25T16:48:49.238Z,65.20
2022-10-25T16:51:17.395Z,66.57
2022-10-25T16:53:44.740Z,66.55
2022-10-25T16:56:12.317Z,59.80
2022-10-25T16:58:40.082Z,67.20
2022-10-25T17:01:20.850Z,58.00
2022-10-25T17:03:49.898Z,65.90
2022-10-25T17:06:39.740Z,61.67
2022-10-25T17:09:04.974Z,57.33
2022-10-25T17:11:32.273Z,63.80
2022-10-25T17:13:59.529Z,66.30
2022-10-25T17:16:29.125Z,61.00
2022-10-25T17:18:57.417Z,53.75
2022-10-25T17:21:24.714Z,50.33
2022-10-25T17:23:52.019Z,46.38
2022-10-25T17:26:19.394Z,46.00
2022-10-25T17:28:46.726Z,46.78
2022-10-25T17:31:15.219Z,46.45
2022-10-25T17:33:43.089Z,44.63
2022-10-25T17:36:11.666Z,42.42
2022-10-25T17:38:39.023Z,49.67
2022-10-25T17:41:06.410Z,40.92
2022-10-25T17:43:35.719Z,36.97
2022-10-25T17:46:04.524Z,37.65
2022-10-25T17:48:32.174Z,37.03
2022-10-25T17:51:01.395Z,35.53
2022-10-25T17:53:28.754Z,38.90
2022-10-25T17:55:56.592Z,37.55
2022-10-25T17:58:23.863Z,37.00
2022-10-25T18:00:51.334Z,30.05
2022-10-25T18:03:18.629Z,28.05
2022-10-25T18:05:45.910Z,31.35
2022-10-25T18:08:13.230Z,32.17
2022-10-25T18:10:40.517Z,23.65
2022-10-25T18:13:07.757Z,23.75
2022-10-25T18:15:35.896Z,31.55
2022-10-25T18:18:03.201Z,24.88
2022-10-25T18:20:30.544Z,25.77
2022-10-25T18:22:57.968Z,24.55
2022-10-25T18:25:25.258Z,26.90
2022-10-25T18:27:52.502Z,24.48
2022-10-25T18:30:19.778Z,28.33
2022-10-25T18:32:47.060Z,31.80
2022-10-25T18:35:14.414Z,24.67
2022-10-25T18:37:42.983Z,25.70
2022-10-25T18:40:10.630Z,24.17
2022-10-25T18:42:38.314Z,30.75
2022-10-25T18:45:06.002Z,24.45
2022-10-25T18:47:33.256Z,27.90
2022-10-25T18:50:00.573Z,30.15
2022-10-25T18:52:27.823Z,30.90
2022-10-25T18:54:55.156Z,29.20
2022-10-25T18:57:22.403Z,26.75
2022-10-25T18:59:49.806Z,30.33
2022-10-25T19:02:17.140Z,29.80
2022-10-25T19:04:44.510Z,24.48
2022-10-25T19:07:11.862Z,32.08
2022-10-25T19:09:39.189Z,28.00
2022-10-25T19:12:07.844Z,26.98
2022-10-25T19:14:35.252Z,25.67
2022-10-25T19:17:02.617Z,30.20
2022-10-25T19:19:29.999Z,28.08
2022-10-25T19:21:58.580Z,26.02
2022-10-25T19:24:25.881Z,29.48
2022-10-25T19:26:53.230Z,23.58
2022-10-25T19:29:20.574Z,28.92
2022-10-25T19:31:47.857Z,29.98
2022-10-25T19:34:15.217Z,26.98
2022-10-25T19:36:42.558Z,31.80
2022-10-25T19:39:09.852Z,27.38
2022-10-25T19:41:37.214Z,32.10
2022-10-25T19:44:04.590Z,34.70
2022-10-25T19:46:31.866Z,28.88
2022-10-25T19:49:00.412Z,31.17
2022-10-25T19:51:28.676Z,36.05
2022-10-25T19:53:56.003Z,28.65
2022-10-25T19:56:23.893Z,29.55
2022-10-25T19:58:51.549Z,27.08
2022-10-25T20:01:27.450Z,26.13
2022-10-25T20:03:55.531Z,32.60
2022-10-25T20:06:25.031Z,27.08
2022-10-25T20:08:52.985Z,26.85
2022-10-25T20:11:20.548Z,24.83
2022-10-25T20:13:50.054Z,25.92
2022-10-25T20:16:17.308Z,25.85
2022-10-25T20:18:47.027Z,23.52
2022-10-25T20:21:16.260Z,24.73
2022-10-25T20:23:49.188Z,28.85
2022-10-25T20:26:16.461Z,23.50
2022-10-25T20:28:43.824Z,25.50
2022-10-25T20:31:11.571Z,19.20
2022-10-25T20:33:39.392Z,25.75
2022-10-25T20:36:10.372Z,22.10
2022-10-25T20:38:37.903Z,26.55
2022-10-25T20:41:13.097Z,19.33
2022-10-25T20:43:40.789Z,25.90
2022-10-25T20:46:08.741Z,17.65
2022-10-25T20:48:36.121Z,21.52
2022-10-25T20:51:06.891Z,23.00
2022-10-25T20:53:35.761Z,18.20
2022-10-25T20:56:03.141Z,25.83
2022-10-25T20:58:30.438Z,21.02
2022-10-25T21:00:57.892Z,26.60
2022-10-25T21:03:26.139Z,23.02
2022-10-25T21:05:57.294Z,25.83
2022-10-25T21:10:55.776Z,22.52
2022-10-25T21:13:23.757Z,22.23
2022-10-25T21:15:51.124Z,26.98
2022-10-25T21:18:18.489Z,22.58
2022-10-25T21:20:46.226Z,21.42
2022-10-25T21:23:13.689Z,18.88
2022-10-25T21:25:40.974Z,19.42
2022-10-25T21:28:08.210Z,24.88
2022-10-25T21:30:35.498Z,22.35
2022-10-25T21:33:03.782Z,25.02
2022-10-25T21:35:31.468Z,24.75
2022-10-25T21:37:59.091Z,24.80
2022-10-25T21:40:26.640Z,37.80
2022-10-25T21:42:53.909Z,22.58
2022-10-25T21:45:21.161Z,27.75
2022-10-25T21:47:48.641Z,23.10
2022-10-25T21:50:17.376Z,25.35
2022-10-25T21:52:44.695Z,21.83
2022-10-25T21:55:11.928Z,32.30
2022-10-25T21:57:39.279Z,21.38
2022-10-25T22:00:06.897Z,30.00
2022-10-25T22:02:34.310Z,18.20
2022-10-25T22:05:01.822Z,25.10
2022-10-25T22:07:29.266Z,23.40
2022-10-25T22:09:56.547Z,23.38
2022-10-25T22:12:23.818Z,25.25
2022-10-25T22:14:51.059Z,22.92
2022-10-25T22:17:18.461Z,25.58
2022-10-25T22:19:45.713Z,20.77
2022-10-25T22:22:12.975Z,23.15
2022-10-25T22:24:40.220Z,23.15
2022-10-25T22:27:07.480Z,21.10
2022-10-25T22:29:34.727Z,20.65
2022-10-25T22:32:01.965Z,20.98
2022-10-25T22:34:29.334Z,23.88
2022-10-25T22:36:56.745Z,18.83
2022-10-25T22:39:23.952Z,20.73
2022-10-25T22:41:53.133Z,23.70
2022-10-25T22:46:53.509Z,24.05
2022-10-25T22:49:21.787Z,26.90
2022-10-25T22:51:49.031Z,26.25
2022-10-25T22:54:16.327Z,22.52
2022-10-25T22:56:43.598Z,24.00
2022-10-25T22:59:11.530Z,23.17
2022-10-25T23:01:38.894Z,21.63
2022-10-25T23:04:07.940Z,25.15
2022-10-25T23:06:39.868Z,21.42
2022-10-25T23:09:09.225Z,23.65
2022-10-25T23:11:37.812Z,19.05
2022-10-25T23:14:05.685Z,18.20
2022-10-25T23:16:32.997Z,19.88
2022-10-25T23:19:00.305Z,20.67
2022-10-25T23:21:31.043Z,22.40
2022-10-25T23:23:59.571Z,17.38
2022-10-25T23:26:28.334Z,18.90
2022-10-25T23:28:56.168Z,21.27
2022-10-25T23:31:23.692Z,18.13
2022-10-25T23:33:54.222Z,21.98
2022-10-25T23:36:22.452Z,19.15
2022-10-25T23:38:50.593Z,22.25
2022-10-25T23:41:18.573Z,14.18
2022-10-25T23:43:45.834Z,22.23
2022-10-25T23:46:13.249Z,25.02
2022-10-25T23:48:41.249Z,17.60
2022-10-25T23:51:09.773Z,22.35
2022-10-25T23:53:37.242Z,20.42
2022-10-25T23:56:05.363Z,18.17
2022-10-25T23:58:32.652Z,20.67
